createdAt,value
2022-09-18T00:02:34.038Z,94.49
2022-09-18T00:05:39.420Z,93.37
2022-09-18T00:08:44.717Z,93.92
2022-09-18T00:11:51.043Z,94.78
2022-09-18T00:14:55.579Z,94.51
2022-09-18T00:18:00.217Z,93.43
2022-09-18T00:21:08.538Z,93.21
2022-09-18T00:24:13.511Z,91.74
2022-09-18T00:27:18.088Z,91.62
2022-09-18T00:30:22.641Z,90.31
2022-09-18T00:33:27.259Z,90.85
2022-09-18T00:36:31.939Z,89.22
2022-09-18T00:39:38.981Z,88.14
2022-09-18T00:42:43.844Z,88.99
2022-09-18T00:45:52.080Z,89.61
2022-09-18T00:49:16.923Z,88.19
2022-09-18T00:52:23.296Z,88.92
2022-09-18T00:55:35.583Z,88.92
2022-09-18T00:58:41.543Z,87.88
2022-09-18T01:01:57.091Z,87.49
2022-09-18T01:05:04.941Z,86.18
2022-09-18T01:08:25.032Z,87.43
2022-09-18T01:11:29.195Z,79.07
2022-09-18T01:14:33.468Z,76.80
2022-09-18T01:17:41.408Z,75.30
2022-09-18T01:20:53.088Z,76.88
2022-09-18T01:24:12.875Z,79.21
2022-09-18T01:27:39.155Z,77.72
2022-09-18T01:30:47.197Z,74.96
2022-09-18T01:33:59.741Z,73.16
2022-09-18T01:37:30.858Z,69.43
2022-09-18T01:40:39.986Z,70.85
2022-09-18T01:43:45.855Z,72.31
2022-09-18T01:46:52.060Z,70.61
2022-09-18T01:50:00.404Z,72.97
2022-09-18T01:53:13.686Z,71.89
2022-09-18T01:56:27.517Z,73.61
2022-09-18T01:59:36.240Z,73.51
2022-09-18T02:02:55.586Z,74.52
2022-09-18T02:06:15.181Z,74.55
2022-09-18T02:09:19.554Z,73.71
2022-09-18T02:12:26.779Z,74.15
2022-09-18T02:15:38.936Z,74.67
2022-09-18T02:18:53.432Z,74.44
2022-09-18T02:21:59.863Z,75.12
2022-09-18T02:25:07.214Z,75.72
2022-09-18T02:28:14.676Z,75.46
2022-09-18T02:31:19.256Z,75.89
2022-09-18T02:34:23.896Z,75.28
2022-09-18T02:37:41.220Z,75.95
2022-09-18T02:41:00.133Z,76.83
2022-09-18T02:44:17.008Z,77.63
2022-09-18T02:47:31.330Z,76.45
2022-09-18T02:50:51.266Z,76.08
2022-09-18T02:54:15.508Z,76.35
2022-09-18T02:57:31.055Z,76.68
2022-09-18T03:00:42.880Z,75.99
2022-09-18T03:03:52.824Z,76.27
2022-09-18T03:07:05.856Z,74.85
2022-09-18T03:10:17.009Z,74.29
2022-09-18T03:13:22.237Z,75.53
2022-09-18T03:16:26.717Z,75.23
2022-09-18T03:19:31.838Z,73.89
2022-09-18T03:22:37.577Z,74.16
2022-09-18T03:25:42.144Z,74.39
2022-09-18T03:28:47.020Z,73.52
2022-09-18T03:31:51.730Z,72.22
2022-09-18T03:34:57.029Z,73.48
2022-09-18T03:38:04.187Z,73.49
2022-09-18T03:41:08.813Z,70.92
2022-09-18T03:44:17.491Z,70.81
2022-09-18T03:47:24.549Z,71.11
2022-09-18T03:50:29.398Z,71.11
2022-09-18T03:53:34.198Z,70.04
2022-09-18T03:56:57.261Z,70.38
2022-09-18T04:00:29.372Z,70.25
2022-09-18T04:03:53.070Z,70.85
2022-09-18T04:07:32.510Z,71.51
2022-09-18T04:10:56.977Z,70.98
2022-09-18T04:14:01.986Z,71.57
2022-09-18T04:17:06.616Z,72.84
2022-09-18T04:20:11.430Z,71.88
2022-09-18T04:23:16.293Z,70.26
2022-09-18T04:26:36.031Z,70.12
2022-09-18T04:29:59.475Z,69.63
2022-09-18T04:33:28.192Z,70.49
2022-09-18T04:36:33.055Z,69.67
2022-09-18T04:39:40.377Z,68.76
2022-09-18T04:42:46.442Z,70.54
2022-09-18T04:45:51.112Z,71.82
2022-09-18T04:48:57.847Z,72.44
2022-09-18T04:52:04.600Z,72.29
2022-09-18T04:55:09.092Z,72.52
2022-09-18T04:58:17.462Z,71.91
2022-09-18T05:01:25.126Z,72.37
2022-09-18T05:04:29.846Z,73.11
2022-09-18T05:07:48.010Z,72.35
2022-09-18T05:10:53.976Z,73.57
2022-09-18T05:13:59.395Z,74.07
2022-09-18T05:17:07.460Z,74.68
2022-09-18T05:20:15.289Z,74.20
2022-09-18T05:23:20.431Z,74.35
2022-09-18T05:26:25.067Z,73.13
2022-09-18T05:29:31.798Z,74.02
2022-09-18T05:32:45.604Z,74.43
2022-09-18T05:35:54.786Z,74.96
2022-09-18T05:38:59.378Z,73.98
2022-09-18T05:42:05.043Z,75.02
2022-09-18T05:45:10.457Z,75.14
2022-09-18T05:48:15.011Z,74.28
2022-09-18T05:51:19.778Z,74.67
2022-09-18T05:54:24.911Z,76.09
2022-09-18T05:57:29.223Z,74.66
2022-09-18T06:00:34.362Z,74.42
2022-09-18T06:03:45.755Z,73.95
2022-09-18T06:06:50.086Z,75.37
2022-09-18T06:09:54.564Z,74.87
2022-09-18T06:13:05.116Z,73.21
2022-09-18T06:16:09.528Z,71.58
2022-09-18T06:19:27.102Z,72.83
2022-09-18T06:22:33.655Z,73.79
2022-09-18T06:25:39.731Z,72.97
2022-09-18T06:28:45.868Z,71.32
2022-09-18T06:31:50.226Z,70.20
2022-09-18T06:35:03.529Z,68.97
2022-09-18T06:38:08.585Z,68.99
2022-09-18T06:41:21.287Z,69.24
2022-09-18T06:44:28.627Z,69.47
2022-09-18T06:47:43.673Z,69.37
2022-09-18T06:50:56.476Z,69.20
2022-09-18T06:54:03.409Z,68.92
2022-09-18T06:57:09.279Z,68.58
2022-09-18T07:00:14.386Z,68.80
2022-09-18T07:03:18.933Z,69.21
2022-09-18T07:06:27.382Z,69.67
2022-09-18T07:09:32.797Z,70.56
2022-09-18T07:12:47.743Z,70.38
2022-09-18T07:15:52.747Z,69.22
2022-09-18T07:18:57.478Z,69.67
2022-09-18T07:22:02.208Z,69.09
2022-09-18T07:25:11.726Z,69.03
2022-09-18T07:28:20.059Z,68.98
2022-09-18T07:31:35.946Z,68.97
2022-09-18T07:34:43.505Z,69.80
2022-09-18T07:37:50.644Z,70.02
2022-09-18T07:41:07.949Z,70.80
2022-09-18T07:44:12.887Z,70.60
2022-09-18T07:47:18.351Z,70.53
2022-09-18T07:50:23.936Z,71.07
2022-09-18T07:53:30.682Z,70.22
2022-09-18T07:56:36.807Z,71.34
2022-09-18T07:59:41.714Z,71.44
2022-09-18T08:02:47.411Z,70.14
2022-09-18T08:06:05.764Z,70.57
2022-09-18T08:09:12.019Z,71.77
2022-09-18T08:12:35.165Z,71.30
2022-09-18T08:15:58.823Z,71.30
2022-09-18T08:19:22.865Z,71.85
2022-09-18T08:22:41.168Z,72.04
2022-09-18T08:25:48.403Z,72.06
2022-09-18T08:28:52.993Z,72.67
2022-09-18T08:31:58.311Z,73.18
2022-09-18T08:35:03.743Z,73.84
2022-09-18T08:38:11.394Z,74.59
2022-09-18T08:42:03.137Z,75.14
2022-09-18T08:45:28.906Z,75.91
2022-09-18T08:48:38.401Z,75.90
2022-09-18T08:51:47.113Z,75.80
2022-09-18T08:54:52.439Z,76.38
2022-09-18T08:58:12.866Z,77.25
2022-09-18T09:01:23.839Z,77.29
2022-09-18T09:04:40.843Z,77.46
2022-09-18T09:08:00.008Z,77.79
2022-09-18T09:11:15.159Z,78.51
2022-09-18T09:14:52.767Z,78.77
2022-09-18T09:18:06.435Z,79.07
2022-09-18T09:21:21.425Z,79.19
2022-09-18T09:24:35.797Z,79.19
2022-09-18T09:28:03.567Z,79.41
2022-09-18T09:31:29.205Z,80.03
2022-09-18T09:35:17.849Z,80.26
2022-09-18T09:38:47.278Z,81.55
2022-09-18T09:42:06.203Z,85.20
2022-09-18T09:45:14.350Z,86.33
2022-09-18T09:48:24.409Z,85.74
2022-09-18T09:51:42.675Z,85.58
2022-09-18T09:54:47.266Z,86.44
2022-09-18T09:58:01.128Z,85.96
2022-09-18T10:01:06.013Z,85.83
2022-09-18T10:04:10.792Z,85.80
2022-09-18T10:07:28.832Z,85.94
2022-09-18T10:10:49.357Z,86.67
2022-09-18T10:13:58.521Z,85.94
2022-09-18T10:17:04.573Z,84.96
2022-09-18T10:20:12.654Z,83.46
2022-09-18T10:23:25.751Z,82.60
2022-09-18T10:26:36.338Z,82.58
2022-09-18T10:29:41.129Z,81.86
2022-09-18T10:32:48.888Z,81.16
2022-09-18T10:36:13.522Z,81.12
2022-09-18T10:39:19.831Z,81.38
2022-09-18T10:42:27.680Z,80.80
2022-09-18T10:45:42.721Z,84.61
2022-09-18T10:49:19.473Z,86.38
2022-09-18T10:52:35.847Z,85.88
2022-09-18T10:55:56.016Z,84.53
2022-09-18T10:59:14.808Z,87.15
2022-09-18T11:02:21.378Z,91.91
2022-09-18T11:05:40.204Z,96.53
2022-09-18T11:08:46.387Z,96.40
2022-09-18T11:11:52.926Z,96.39
2022-09-18T11:15:08.512Z,96.86
2022-09-18T11:18:16.823Z,96.93
2022-09-18T11:21:21.219Z,96.69
2022-09-18T11:24:30.035Z,97.45
2022-09-18T11:27:47.099Z,98.34
2022-09-18T11:31:00.115Z,99.38
2022-09-18T11:34:06.507Z,98.55
2022-09-18T11:37:15.827Z,99.19
2022-09-18T11:40:20.882Z,98.31
2022-09-18T11:43:28.621Z,98.65
2022-09-18T11:46:42.278Z,99.99
2022-09-18T11:49:50.121Z,99.97
2022-09-18T11:52:57.929Z,100.00
2022-09-18T11:56:09.028Z,98.05
2022-09-18T11:59:25.183Z,98.99
2022-09-18T12:02:52.707Z,98.57
2022-09-18T12:06:21.005Z,94.93
2022-09-18T12:09:43.816Z,96.66
2022-09-18T12:12:51.299Z,96.68
2022-09-18T12:16:14.579Z,94.91
2022-09-18T12:19:19.937Z,93.90
2022-09-18T12:22:46.875Z,93.81
2022-09-18T12:26:03.782Z,94.62
2022-09-18T12:29:26.844Z,95.03
2022-09-18T12:32:35.830Z,94.70
2022-09-18T12:35:58.939Z,96.17
2022-09-18T12:39:19.697Z,97.58
2022-09-18T12:42:30.425Z,98.14
2022-09-18T12:45:41.229Z,96.51
2022-09-18T12:48:59.308Z,97.76
2022-09-18T12:52:04.092Z,96.29
2022-09-18T12:55:18.866Z,95.70
2022-09-18T12:58:32.391Z,95.60
2022-09-18T13:01:46.208Z,95.48
2022-09-18T13:05:16.998Z,95.49
2022-09-18T13:08:25.173Z,94.00
2022-09-18T13:11:48.387Z,90.50
2022-09-18T13:14:56.506Z,92.70
2022-09-18T13:18:21.774Z,92.39
2022-09-18T13:21:26.321Z,92.51
2022-09-18T13:24:34.805Z,91.40
2022-09-18T13:27:39.710Z,91.83
2022-09-18T13:30:44.685Z,91.94
2022-09-18T13:34:01.261Z,91.40
2022-09-18T13:37:07.458Z,89.16
2022-09-18T13:40:32.106Z,89.41
2022-09-18T13:43:44.960Z,87.20
2022-09-18T13:46:50.938Z,87.19
2022-09-18T13:50:00.823Z,89.12
2022-09-18T13:53:30.717Z,92.26
2022-09-18T13:56:54.818Z,93.70
2022-09-18T14:00:02.121Z,94.75
2022-09-18T14:03:15.975Z,95.60
2022-09-18T14:06:37.643Z,94.08
2022-09-18T14:10:04.879Z,93.91
2022-09-18T14:13:09.728Z,94.52
2022-09-18T14:16:20.899Z,93.36
2022-09-18T14:19:33.573Z,93.43
2022-09-18T14:22:41.201Z,93.58
2022-09-18T14:25:47.077Z,94.36
2022-09-18T14:28:52.405Z,95.31
2022-09-18T14:32:00.307Z,94.94
2022-09-18T14:35:26.880Z,91.31
2022-09-18T14:38:35.838Z,90.64
2022-09-18T14:41:40.516Z,90.01
2022-09-18T14:44:55.953Z,91.53
2022-09-18T14:48:01.162Z,93.75
2022-09-18T14:51:08.026Z,95.17
2022-09-18T14:54:20.273Z,96.09
2022-09-18T14:57:36.103Z,95.09
2022-09-18T15:00:40.688Z,96.34
2022-09-18T15:03:47.455Z,95.91
2022-09-18T15:06:54.580Z,94.52
2022-09-18T15:10:01.440Z,94.60
2022-09-18T15:13:08.303Z,92.40
2022-09-18T15:16:19.345Z,93.46
2022-09-18T15:19:23.942Z,94.13
2022-09-18T15:22:28.999Z,94.21
2022-09-18T15:25:34.758Z,94.87
2022-09-18T15:28:39.495Z,95.88
2022-09-18T15:31:44.399Z,94.58
2022-09-18T15:34:50.831Z,96.49
2022-09-18T15:38:03.110Z,97.52
2022-09-18T15:41:37.157Z,97.43
2022-09-18T15:45:01.568Z,98.64
2022-09-18T15:48:26.137Z,98.58
2022-09-18T15:51:35.225Z,97.43
2022-09-18T15:54:39.687Z,96.69
2022-09-18T15:58:04.839Z,96.01
2022-09-18T16:01:20.706Z,94.66
2022-09-18T16:04:27.956Z,93.38
2022-09-18T16:07:32.549Z,93.37
2022-09-18T16:10:40.496Z,91.72
2022-09-18T16:13:45.174Z,90.85
2022-09-18T16:16:49.940Z,90.51
2022-09-18T16:19:55.089Z,88.92
2022-09-18T16:23:07.892Z,87.88
2022-09-18T16:26:14.543Z,86.67
2022-09-18T16:29:21.038Z,88.02
2022-09-18T16:32:25.529Z,88.06
2022-09-18T16:35:30.040Z,88.36
2022-09-18T16:38:35.129Z,87.13
2022-09-18T16:41:39.738Z,86.55
2022-09-18T16:44:44.157Z,83.26
2022-09-18T16:47:49.836Z,85.01
2022-09-18T16:50:54.332Z,84.60
2022-09-18T16:53:58.763Z,87.57
2022-09-18T16:57:05.891Z,86.58
2022-09-18T17:00:11.584Z,87.21
2022-09-18T17:03:16.551Z,84.41
2022-09-18T17:06:21.032Z,84.08
2022-09-18T17:09:25.787Z,89.34
2022-09-18T17:12:30.178Z,89.02
2022-09-18T17:15:34.749Z,89.32
2022-09-18T17:18:39.038Z,90.02
2022-09-18T17:21:43.603Z,88.32
2022-09-18T17:24:48.140Z,86.46
2022-09-18T17:27:53.646Z,85.91
2022-09-18T17:30:58.666Z,91.13
2022-09-18T17:34:03.324Z,92.69
2022-09-18T17:37:07.851Z,90.33
2022-09-18T17:40:12.368Z,91.14
2022-09-18T17:43:17.511Z,89.78
2022-09-18T17:46:21.937Z,90.20
2022-09-18T17:49:27.095Z,91.16
2022-09-18T17:52:33.788Z,89.82
2022-09-18T17:55:38.692Z,91.22
2022-09-18T17:58:45.189Z,89.94
2022-09-18T18:01:50.101Z,91.52
2022-09-18T18:04:54.754Z,91.26
2022-09-18T18:07:59.120Z,90.81
2022-09-18T18:11:04.983Z,91.22
2022-09-18T18:14:09.151Z,89.78
2022-09-18T18:17:14.693Z,90.98
2022-09-18T18:20:19.621Z,93.61
2022-09-18T18:23:24.414Z,93.34
2022-09-18T18:26:32.047Z,92.86
2022-09-18T18:29:40.272Z,93.30
2022-09-18T18:32:44.667Z,91.57
2022-09-18T18:35:49.070Z,94.43
2022-09-18T18:38:56.171Z,91.62
2022-09-18T18:42:00.418Z,93.09
2022-09-18T18:45:04.608Z,93.82
2022-09-18T18:48:10.004Z,93.96
2022-09-18T18:51:15.680Z,94.74
2022-09-18T18:54:21.498Z,95.57
2022-09-18T18:57:25.716Z,97.34
2022-09-18T19:00:30.364Z,97.37
2022-09-18T19:03:39.867Z,96.20
2022-09-18T19:06:45.265Z,95.45
2022-09-18T19:09:49.642Z,93.38
2022-09-18T19:12:58.181Z,92.79
2022-09-18T19:16:04.073Z,93.35
2022-09-18T19:19:10.297Z,93.63
2022-09-18T19:22:18.505Z,93.53
2022-09-18T19:25:22.970Z,96.22
2022-09-18T19:28:30.820Z,93.64
2022-09-18T19:31:36.201Z,92.21
2022-09-18T19:34:41.194Z,92.71
2022-09-18T19:37:45.646Z,92.00
2022-09-18T19:40:51.605Z,90.37
2022-09-18T19:43:56.106Z,91.77
2022-09-18T19:47:16.903Z,92.93
2022-09-18T19:50:33.724Z,94.92
2022-09-18T19:53:38.081Z,95.39
2022-09-18T19:56:48.928Z,96.20
2022-09-18T19:59:56.658Z,97.53
2022-09-18T20:03:01.440Z,96.09
2022-09-18T20:06:06.177Z,96.01
2022-09-18T20:09:10.470Z,95.13
2022-09-18T20:12:15.150Z,94.68
2022-09-18T20:15:19.638Z,95.08
2022-09-18T20:18:23.790Z,92.77
2022-09-18T20:21:28.190Z,96.17
2022-09-18T20:24:33.582Z,96.81
2022-09-18T20:27:39.469Z,96.18
2022-09-18T20:30:46.121Z,97.72
2022-09-18T20:33:55.045Z,98.42
2022-09-18T20:36:59.946Z,98.13
2022-09-18T20:40:05.709Z,97.70
2022-09-18T20:43:10.376Z,99.56
2022-09-18T20:46:16.566Z,99.92
2022-09-18T20:49:26.458Z,98.90
2022-09-18T20:52:31.112Z,97.60
2022-09-18T20:55:35.860Z,97.14
2022-09-18T20:58:43.209Z,96.07
2022-09-18T21:01:48.322Z,96.66
2022-09-18T21:04:53.709Z,95.95
2022-09-18T21:07:59.106Z,94.71
2022-09-18T21:11:04.651Z,95.50
2022-09-18T21:14:10.944Z,96.92
2022-09-18T21:17:15.132Z,97.47
2022-09-18T21:20:20.167Z,95.13
2022-09-18T21:23:43.055Z,93.30
2022-09-18T21:26:49.204Z,94.39
2022-09-18T21:29:53.631Z,95.13
2022-09-18T21:32:58.179Z,93.80
2022-09-18T21:36:03.218Z,91.91
2022-09-18T21:39:10.210Z,93.08
2022-09-18T21:42:15.019Z,92.91
2022-09-18T21:45:21.176Z,88.02
2022-09-18T21:48:25.469Z,86.75
2022-09-18T21:51:29.809Z,81.95
2022-09-18T21:54:34.266Z,82.63
2022-09-18T21:57:39.385Z,81.80
2022-09-18T22:00:43.798Z,80.67
2022-09-18T22:03:56.932Z,83.38
2022-09-18T22:07:02.797Z,83.47
2022-09-18T22:10:07.591Z,82.23
2022-09-18T22:13:12.169Z,85.65
2022-09-18T22:16:16.660Z,82.11
2022-09-18T22:19:21.590Z,83.36
2022-09-18T22:22:25.697Z,81.71
2022-09-18T22:25:30.958Z,81.33
2022-09-18T22:28:35.834Z,80.42
2022-09-18T22:31:40.463Z,79.71
2022-09-18T22:34:45.330Z,80.60
2022-09-18T22:37:49.779Z,79.75
2022-09-18T22:40:54.210Z,81.19
2022-09-18T22:43:59.002Z,81.44
2022-09-18T22:47:03.827Z,79.60
2022-09-18T22:50:08.659Z,82.77
2022-09-18T22:53:14.837Z,83.47
2022-09-18T22:56:19.946Z,82.54
2022-09-18T22:59:25.450Z,81.28
2022-09-18T23:02:30.040Z,78.99
2022-09-18T23:05:40.452Z,80.15
2022-09-18T23:08:45.535Z,82.25
2022-09-18T23:11:54.083Z,83.08
2022-09-18T23:14:58.312Z,81.29
2022-09-18T23:18:02.751Z,80.76
2022-09-18T23:21:08.376Z,82.40
2022-09-18T23:24:13.241Z,81.96
2022-09-18T23:27:17.574Z,84.35
2022-09-18T23:30:22.353Z,83.84
2022-09-18T23:34:09.716Z,83.49
2022-09-18T23:37:13.847Z,85.78
2022-09-18T23:40:18.299Z,83.54
2022-09-18T23:43:22.941Z,80.48
2022-09-18T23:46:27.181Z,82.17
2022-09-18T23:49:31.734Z,80.04
2022-09-18T23:52:36.227Z,78.55
2022-09-18T23:55:40.366Z,76.37
2022-09-18T23:58:45.802Z,78.45
